createdAt,value
2023-02-06T00:00:38.539Z,6.88
2023-02-06T00:03:10.370Z,8.02
2023-02-06T00:05:41.976Z,7.28
2023-02-06T00:08:13.493Z,7.97
2023-02-06T00:10:44.884Z,7.20
2023-02-06T00:13:16.804Z,6.07
2023-02-06T00:15:48.428Z,7.43
2023-02-06T00:18:19.888Z,7.70
2023-02-06T00:20:51.319Z,7.20
2023-02-06T00:23:23.007Z,8.00
2023-02-06T00:25:54.440Z,8.38
2023-02-06T00:28:25.840Z,6.72
2023-02-06T00:30:57.299Z,7.05
2023-02-06T00:33:28.796Z,7.00
2023-02-06T00:36:01.950Z,7.18
2023-02-06T00:38:33.550Z,7.15
2023-02-06T00:41:05.180Z,6.10
2023-02-06T00:43:36.888Z,8.27
2023-02-06T00:46:08.406Z,7.30
2023-02-06T00:48:39.833Z,8.15
2023-02-06T00:51:11.361Z,6.90
2023-02-06T00:53:42.815Z,7.20
2023-02-06T00:56:14.258Z,6.38
2023-02-06T00:58:45.711Z,7.72
2023-02-06T01:01:17.627Z,7.25
2023-02-06T01:03:49.145Z,6.35
2023-02-06T01:06:21.108Z,6.15
2023-02-06T01:08:52.746Z,6.38
2023-02-06T01:11:25.540Z,6.33
2023-02-06T01:13:57.019Z,6.45
2023-02-06T01:16:28.823Z,6.28
2023-02-06T01:19:00.303Z,7.72
2023-02-06T01:21:31.729Z,7.20
2023-02-06T01:24:03.370Z,7.10
2023-02-06T01:26:34.784Z,7.68
2023-02-06T01:29:06.262Z,7.28
2023-02-06T01:31:37.777Z,6.82
2023-02-06T01:34:09.918Z,5.93
2023-02-06T01:36:41.351Z,6.68
2023-02-06T01:39:12.832Z,6.03
2023-02-06T01:41:44.272Z,7.38
2023-02-06T01:44:18.885Z,7.00
2023-02-06T01:46:52.527Z,5.43
2023-02-06T01:49:40.296Z,6.43
2023-02-06T01:52:19.868Z,5.83
2023-02-06T01:54:59.249Z,5.97
2023-02-06T01:57:32.604Z,6.53
2023-02-06T02:00:08.176Z,6.43
2023-02-06T02:02:43.715Z,6.93
2023-02-06T02:05:17.215Z,6.50
2023-02-06T02:07:58.687Z,5.55
2023-02-06T02:10:31.135Z,7.40
2023-02-06T02:13:02.577Z,6.22
2023-02-06T02:15:58.754Z,6.45
2023-02-06T02:19:11.913Z,5.97
2023-02-06T02:22:01.659Z,5.75
2023-02-06T02:24:56.073Z,6.40
2023-02-06T02:27:44.472Z,6.00
2023-02-06T02:30:53.028Z,6.30
2023-02-06T02:33:46.025Z,5.97
2023-02-06T02:36:37.407Z,6.28
2023-02-06T02:39:53.167Z,5.43
2023-02-06T02:42:30.867Z,6.03
2023-02-06T02:45:19.426Z,6.35
2023-02-06T02:47:58.766Z,7.10
2023-02-06T02:50:31.207Z,6.40
2023-02-06T02:53:03.652Z,5.87
2023-02-06T02:55:35.529Z,4.88
2023-02-06T02:58:15.029Z,5.25
2023-02-06T03:00:51.486Z,5.63
2023-02-06T03:03:25.892Z,5.55
2023-02-06T03:06:21.849Z,5.45
2023-02-06T03:09:05.759Z,5.68
2023-02-06T03:11:45.320Z,6.32
2023-02-06T03:14:47.803Z,6.18
2023-02-06T03:17:51.402Z,6.37
2023-02-06T03:20:23.918Z,5.50
2023-02-06T03:22:57.486Z,5.78
2023-02-06T03:25:36.215Z,4.72
2023-02-06T03:28:16.073Z,4.30
2023-02-06T03:30:50.984Z,5.55
2023-02-06T03:33:28.864Z,7.25
2023-02-06T03:36:00.401Z,6.00
2023-02-06T03:38:32.486Z,6.50
2023-02-06T03:41:05.885Z,6.55
2023-02-06T03:43:37.879Z,6.25
2023-02-06T03:46:11.391Z,5.90
2023-02-06T03:48:47.570Z,5.72
2023-02-06T03:51:28.382Z,6.32
2023-02-06T03:54:02.694Z,5.72
2023-02-06T03:56:40.326Z,5.47
2023-02-06T03:59:14.142Z,5.97
2023-02-06T04:01:49.633Z,5.15
2023-02-06T04:04:24.741Z,6.32
2023-02-06T04:07:04.510Z,4.73
2023-02-06T04:09:35.960Z,5.35
2023-02-06T04:12:07.825Z,5.20
2023-02-06T04:14:39.269Z,5.97
2023-02-06T04:17:11.721Z,5.65
2023-02-06T04:19:43.235Z,6.50
2023-02-06T04:22:15.991Z,5.55
2023-02-06T04:24:47.636Z,5.60
2023-02-06T04:27:19.039Z,5.47
2023-02-06T04:29:50.448Z,5.63
2023-02-06T04:32:22.008Z,5.50
2023-02-06T04:34:53.446Z,4.68
2023-02-06T04:37:24.913Z,5.20
2023-02-06T04:39:56.333Z,4.32
2023-02-06T04:42:27.811Z,5.10
2023-02-06T04:44:59.236Z,5.53
2023-02-06T04:47:30.661Z,4.93
2023-02-06T04:50:03.122Z,4.85
2023-02-06T04:52:34.530Z,4.57
2023-02-06T04:55:06.373Z,5.50
2023-02-06T04:57:37.834Z,4.85
2023-02-06T05:00:10.019Z,6.05
2023-02-06T05:02:41.550Z,4.57
2023-02-06T05:05:13.108Z,4.95
2023-02-06T05:07:44.527Z,4.10
2023-02-06T05:10:16.063Z,5.25
2023-02-06T05:12:47.512Z,4.75
2023-02-06T05:15:19.213Z,5.05
2023-02-06T05:17:50.661Z,4.68
2023-02-06T05:20:22.112Z,5.28
2023-02-06T05:22:53.814Z,5.55
2023-02-06T05:25:25.300Z,4.45
2023-02-06T05:27:56.728Z,3.45
2023-02-06T05:30:28.448Z,5.00
2023-02-06T05:33:00.031Z,6.03
2023-02-06T05:35:31.660Z,6.63
2023-02-06T05:38:08.911Z,6.00
2023-02-06T05:40:40.436Z,5.72
2023-02-06T05:43:12.225Z,6.47
2023-02-06T05:45:43.632Z,5.50
2023-02-06T05:48:15.111Z,5.13
2023-02-06T05:50:49.412Z,5.32
2023-02-06T05:53:20.886Z,5.25
2023-02-06T05:55:52.397Z,5.20
2023-02-06T05:58:24.054Z,5.70
2023-02-06T06:00:55.521Z,4.97
2023-02-06T06:03:27.016Z,5.68
2023-02-06T06:05:58.443Z,5.07
2023-02-06T06:08:29.888Z,5.28
2023-02-06T06:11:02.164Z,5.20
2023-02-06T06:13:33.847Z,5.45
2023-02-06T06:16:05.396Z,5.45
2023-02-06T06:18:37.150Z,5.83
2023-02-06T06:21:08.554Z,5.53
2023-02-06T06:23:40.066Z,6.00
2023-02-06T06:26:11.500Z,6.10
2023-02-06T06:28:42.961Z,6.82
2023-02-06T06:31:14.656Z,6.47
2023-02-06T06:33:46.342Z,5.90
2023-02-06T06:36:17.766Z,5.50
2023-02-06T06:38:49.252Z,5.93
2023-02-06T06:41:20.834Z,6.13
2023-02-06T06:43:55.472Z,6.77
2023-02-06T06:46:26.968Z,5.78
2023-02-06T06:48:58.405Z,5.63
2023-02-06T06:51:29.848Z,5.70
2023-02-06T06:54:01.333Z,6.03
2023-02-06T06:56:32.986Z,6.80
2023-02-06T06:59:04.629Z,5.55
2023-02-06T07:01:36.098Z,5.88
2023-02-06T07:04:07.533Z,7.05
2023-02-06T07:06:38.982Z,6.50
2023-02-06T07:09:10.524Z,6.38
2023-02-06T07:11:42.972Z,6.07
2023-02-06T07:14:14.485Z,6.13
2023-02-06T07:16:46.014Z,6.13
2023-02-06T07:19:17.649Z,5.90
2023-02-06T07:21:49.037Z,6.25
2023-02-06T07:24:20.596Z,6.10
2023-02-06T07:26:52.058Z,5.13
2023-02-06T07:29:24.026Z,6.57
2023-02-06T07:31:55.541Z,6.07
2023-02-06T07:34:27.039Z,6.32
2023-02-06T07:36:58.578Z,5.97
2023-02-06T07:39:29.995Z,6.03
2023-02-06T07:42:01.427Z,5.97
2023-02-06T07:44:32.852Z,5.82
2023-02-06T07:47:04.413Z,5.47
2023-02-06T07:49:36.080Z,5.93
2023-02-06T07:52:07.573Z,5.70
2023-02-06T07:54:38.968Z,5.55
2023-02-06T07:57:10.393Z,4.95
2023-02-06T07:59:41.780Z,5.85
2023-02-06T08:02:13.262Z,6.68
2023-02-06T08:04:44.916Z,6.25
2023-02-06T08:07:17.900Z,7.22
2023-02-06T08:09:49.315Z,6.07
2023-02-06T08:12:20.763Z,5.97
2023-02-06T08:14:52.392Z,6.95
2023-02-06T08:17:23.856Z,7.13
2023-02-06T08:19:55.283Z,7.18
2023-02-06T08:22:29.141Z,6.72
2023-02-06T08:25:00.610Z,8.23
2023-02-06T08:27:32.350Z,7.47
2023-02-06T08:30:04.544Z,6.97
2023-02-06T08:32:36.211Z,7.32
2023-02-06T08:35:07.859Z,8.32
2023-02-06T08:37:39.324Z,6.72
2023-02-06T08:40:11.376Z,6.50
2023-02-06T08:42:42.791Z,5.83
2023-02-06T08:45:14.192Z,6.05
2023-02-06T08:47:45.715Z,6.68
2023-02-06T08:50:17.235Z,6.85
2023-02-06T08:52:48.694Z,6.70
2023-02-06T08:55:20.111Z,5.97
2023-02-06T08:57:56.684Z,6.10
2023-02-06T09:00:28.140Z,6.82
2023-02-06T09:02:59.616Z,7.28
2023-02-06T09:05:31.064Z,6.43
2023-02-06T09:08:02.473Z,4.93
2023-02-06T09:10:33.894Z,6.70
2023-02-06T09:13:05.319Z,6.43
2023-02-06T09:15:37.206Z,6.90
2023-02-06T09:18:09.707Z,8.02
2023-02-06T09:20:41.225Z,7.07
2023-02-06T09:23:13.255Z,8.02
2023-02-06T09:25:45.731Z,7.05
2023-02-06T09:28:17.185Z,6.85
2023-02-06T09:30:49.650Z,6.90
2023-02-06T09:33:21.169Z,6.38
2023-02-06T09:36:07.951Z,6.50
2023-02-06T09:38:44.311Z,7.25
2023-02-06T09:41:33.987Z,7.15
2023-02-06T09:44:11.080Z,6.47
2023-02-06T09:46:59.215Z,6.63
2023-02-06T09:49:41.715Z,5.80
2023-02-06T09:52:13.107Z,6.53
2023-02-06T09:54:46.343Z,7.22
2023-02-06T09:57:28.193Z,6.43
2023-02-06T10:00:03.035Z,6.15
2023-02-06T10:03:03.402Z,5.60
2023-02-06T10:05:49.365Z,6.25
2023-02-06T10:08:48.653Z,6.50
2023-02-06T10:11:40.379Z,5.90
2023-02-06T10:14:41.010Z,5.85
2023-02-06T10:17:35.095Z,5.50
2023-02-06T10:20:19.810Z,6.30
2023-02-06T10:23:15.204Z,5.78
2023-02-06T10:25:50.351Z,5.60
2023-02-06T10:28:25.869Z,5.25
2023-02-06T10:31:12.479Z,5.03
2023-02-06T10:33:54.901Z,5.05
2023-02-06T10:36:46.262Z,4.70
2023-02-06T10:39:46.933Z,4.80
2023-02-06T10:42:43.467Z,5.22
2023-02-06T10:45:27.056Z,4.90
2023-02-06T10:48:16.379Z,4.93
2023-02-06T10:51:07.536Z,6.03
2023-02-06T10:53:51.152Z,5.27
2023-02-06T10:56:27.310Z,5.00
2023-02-06T10:59:02.682Z,4.57
2023-02-06T11:01:40.972Z,4.73
2023-02-06T11:04:17.353Z,5.07
2023-02-06T11:06:48.785Z,5.18
2023-02-06T11:09:20.315Z,5.53
2023-02-06T11:11:53.453Z,5.63
2023-02-06T11:14:28.739Z,6.07
2023-02-06T11:17:01.031Z,5.70
2023-02-06T11:19:37.231Z,5.82
2023-02-06T11:22:12.737Z,6.67
2023-02-06T11:24:59.810Z,6.28
2023-02-06T11:27:33.577Z,5.63
2023-02-06T11:30:30.121Z,5.30
2023-02-06T11:33:19.171Z,4.50
2023-02-06T11:35:54.437Z,5.10
2023-02-06T11:38:29.245Z,5.18
2023-02-06T11:41:05.151Z,5.25
2023-02-06T11:43:42.844Z,4.40
2023-02-06T11:46:17.432Z,5.60
2023-02-06T11:49:02.397Z,4.43
2023-02-06T11:51:57.515Z,4.57
2023-02-06T11:54:33.384Z,4.13
2023-02-06T11:57:18.973Z,5.15
2023-02-06T11:59:53.453Z,4.90
2023-02-06T12:02:31.900Z,4.40
2023-02-06T12:05:17.922Z,5.50
2023-02-06T12:07:58.565Z,4.47
2023-02-06T12:10:38.343Z,4.03
2023-02-06T12:13:23.752Z,4.13
2023-02-06T12:15:59.469Z,4.38
2023-02-06T12:18:42.835Z,4.05
2023-02-06T12:21:21.353Z,4.50
2023-02-06T12:24:00.783Z,4.63
2023-02-06T12:26:35.255Z,4.57
2023-02-06T12:29:19.861Z,4.45
2023-02-06T12:32:03.438Z,4.23
2023-02-06T12:34:49.670Z,4.88
2023-02-06T12:37:34.052Z,4.30
2023-02-06T12:40:46.503Z,4.20
2023-02-06T12:43:19.284Z,4.70
2023-02-06T12:46:00.823Z,4.07
2023-02-06T12:49:01.808Z,4.20
2023-02-06T12:51:45.456Z,4.20
2023-02-06T12:54:26.861Z,5.30
2023-02-06T12:57:15.911Z,4.88
2023-02-06T13:00:16.864Z,4.45
2023-02-06T13:03:22.243Z,4.30
2023-02-06T13:05:56.019Z,4.78
2023-02-06T13:08:36.477Z,3.95
2023-02-06T13:11:15.425Z,4.45
2023-02-06T13:13:48.046Z,4.13
2023-02-06T13:16:19.578Z,4.13
2023-02-06T13:18:52.748Z,4.25
2023-02-06T13:21:28.232Z,4.53
2023-02-06T13:24:02.423Z,4.57
2023-02-06T13:26:45.853Z,4.50
2023-02-06T13:29:24.658Z,4.60
2023-02-06T13:32:11.396Z,4.18
2023-02-06T13:34:50.924Z,4.23
2023-02-06T13:37:31.380Z,3.95
2023-02-06T13:40:27.389Z,4.30
2023-02-06T13:43:07.865Z,4.38
2023-02-06T13:45:59.321Z,4.38
2023-02-06T13:48:39.787Z,4.03
2023-02-06T13:51:33.119Z,4.20
2023-02-06T13:54:30.691Z,4.17
2023-02-06T13:57:20.221Z,4.10
2023-02-06T14:00:17.123Z,4.25
2023-02-06T14:02:53.314Z,4.15
2023-02-06T14:05:43.915Z,4.07
2023-02-06T14:08:56.833Z,4.20
2023-02-06T14:12:00.903Z,4.07
2023-02-06T14:15:28.223Z,4.18
2023-02-06T14:18:12.169Z,4.00
2023-02-06T14:21:14.428Z,3.88
2023-02-06T14:24:01.630Z,4.70
2023-02-06T14:27:05.537Z,4.47
2023-02-06T14:29:40.043Z,4.10
2023-02-06T14:32:45.223Z,4.38
2023-02-06T14:35:41.240Z,4.97
2023-02-06T14:38:22.142Z,5.10
2023-02-06T14:40:56.243Z,5.15
2023-02-06T14:43:35.155Z,4.68
2023-02-06T14:46:13.785Z,4.40
2023-02-06T14:48:50.796Z,5.13
2023-02-06T14:51:29.414Z,5.18
2023-02-06T14:54:06.379Z,5.30
2023-02-06T14:56:39.385Z,4.60
2023-02-06T14:59:13.642Z,4.50
2023-02-06T15:01:48.416Z,4.75
2023-02-06T15:04:21.958Z,5.10
2023-02-06T15:07:02.089Z,4.77
2023-02-06T15:09:40.932Z,4.87
2023-02-06T15:12:20.924Z,5.38
2023-02-06T15:14:54.932Z,5.45
2023-02-06T15:17:26.577Z,5.15
2023-02-06T15:20:15.169Z,5.37
2023-02-06T15:22:46.746Z,4.82
2023-02-06T15:25:37.157Z,5.17
2023-02-06T15:28:22.501Z,4.97
2023-02-06T15:30:55.840Z,5.43
2023-02-06T15:33:31.075Z,4.97
2023-02-06T15:36:04.066Z,4.50
2023-02-06T15:38:35.666Z,5.07
2023-02-06T15:41:08.435Z,5.38
2023-02-06T15:43:41.540Z,4.63
2023-02-06T15:46:14.096Z,4.65
2023-02-06T15:48:51.001Z,4.90
2023-02-06T15:51:27.705Z,4.90
2023-02-06T15:54:23.338Z,4.47
2023-02-06T15:57:04.812Z,4.60
2023-02-06T15:59:39.909Z,5.03
2023-02-06T16:02:26.185Z,4.40
2023-02-06T16:04:57.985Z,4.07
2023-02-06T16:07:32.370Z,5.35
2023-02-06T16:10:26.424Z,4.60
2023-02-06T16:13:00.239Z,5.80
2023-02-06T16:15:34.008Z,5.35
2023-02-06T16:18:25.059Z,5.15
2023-02-06T16:21:17.958Z,5.72
2023-02-06T16:23:58.486Z,4.77
2023-02-06T16:26:32.207Z,5.15
2023-02-06T16:29:12.932Z,4.60
2023-02-06T16:31:44.730Z,4.70
2023-02-06T16:34:29.556Z,4.22
2023-02-06T16:37:01.018Z,5.03
2023-02-06T16:39:32.416Z,5.13
2023-02-06T16:42:04.038Z,4.20
2023-02-06T16:44:44.604Z,3.97
2023-02-06T16:47:19.499Z,4.45
2023-02-06T16:49:51.098Z,3.95
2023-02-06T16:52:26.510Z,3.83
2023-02-06T16:54:59.054Z,4.18
2023-02-06T16:57:35.796Z,4.22
2023-02-06T17:00:26.832Z,3.97
2023-02-06T17:02:58.650Z,3.40
2023-02-06T17:05:30.284Z,4.50
2023-02-06T17:08:02.011Z,4.13
2023-02-06T17:10:33.491Z,4.53
2023-02-06T17:13:04.956Z,5.00
2023-02-06T17:15:36.720Z,4.30
2023-02-06T17:18:12.638Z,4.47
2023-02-06T17:20:47.485Z,3.77
2023-02-06T17:23:20.026Z,4.28
2023-02-06T17:25:51.521Z,4.90
2023-02-06T17:28:23.005Z,4.25
2023-02-06T17:30:54.602Z,4.13
2023-02-06T17:33:26.111Z,4.53
2023-02-06T17:35:57.729Z,4.22
2023-02-06T17:38:29.175Z,4.20
2023-02-06T17:41:00.640Z,4.07
2023-02-06T17:43:32.138Z,4.97
2023-02-06T17:46:05.135Z,3.90
2023-02-06T17:48:36.882Z,4.57
2023-02-06T17:51:08.785Z,4.82
2023-02-06T17:53:40.472Z,4.07
2023-02-06T17:56:13.171Z,4.30
2023-02-06T17:58:44.706Z,4.28
2023-02-06T18:01:19.715Z,4.07
2023-02-06T18:03:51.584Z,4.03
2023-02-06T18:06:23.509Z,5.53
2023-02-06T18:08:54.968Z,5.45
2023-02-06T18:11:26.442Z,4.70
2023-02-06T18:13:58.322Z,5.60
2023-02-06T18:16:30.341Z,5.30
2023-02-06T18:19:02.276Z,5.25
2023-02-06T18:21:33.715Z,4.90
2023-02-06T18:24:05.887Z,6.55
2023-02-06T18:26:37.329Z,5.30
2023-02-06T18:29:09.036Z,5.30
2023-02-06T18:31:41.170Z,5.45
2023-02-06T18:34:12.589Z,6.05
2023-02-06T18:36:44.036Z,5.63
2023-02-06T18:39:15.765Z,6.13
2023-02-06T18:41:47.265Z,6.85
2023-02-06T18:44:18.737Z,5.97
2023-02-06T18:46:50.674Z,5.43
2023-02-06T18:49:22.163Z,5.65
2023-02-06T18:51:53.623Z,6.40
2023-02-06T18:54:25.060Z,6.35
2023-02-06T18:56:56.448Z,5.93
2023-02-06T18:59:28.279Z,5.60
2023-02-06T19:01:59.791Z,5.40
2023-02-06T19:04:31.259Z,5.68
2023-02-06T19:07:02.861Z,5.43
2023-02-06T19:09:34.556Z,5.73
2023-02-06T19:12:06.275Z,6.53
2023-02-06T19:14:38.727Z,6.07
2023-02-06T19:17:10.169Z,6.13
2023-02-06T19:19:41.625Z,5.20
2023-02-06T19:22:13.274Z,6.20
2023-02-06T19:24:44.839Z,6.72
2023-02-06T19:27:16.715Z,6.07
2023-02-06T19:29:48.622Z,6.75
2023-02-06T19:32:20.165Z,5.93
2023-02-06T19:34:51.560Z,5.28
2023-02-06T19:37:23.027Z,7.00
2023-02-06T19:39:54.467Z,5.55
2023-02-06T19:42:25.981Z,6.20
2023-02-06T19:44:57.445Z,6.13
2023-02-06T19:47:28.929Z,6.85
2023-02-06T19:50:00.315Z,5.87
2023-02-06T19:52:31.774Z,6.10
2023-02-06T19:55:04.220Z,5.17
2023-02-06T19:57:39.180Z,6.68
2023-02-06T20:00:11.510Z,5.90
2023-02-06T20:02:42.925Z,6.10
2023-02-06T20:05:14.551Z,5.97
2023-02-06T20:07:45.992Z,6.03
2023-02-06T20:10:17.562Z,6.55
2023-02-06T20:12:49.104Z,6.05
2023-02-06T20:15:20.538Z,5.78
2023-02-06T20:17:54.132Z,6.20
2023-02-06T20:20:25.536Z,5.82
2023-02-06T20:22:57.024Z,6.47
2023-02-06T20:25:28.870Z,5.95
2023-02-06T20:28:00.373Z,6.33
2023-02-06T20:30:32.311Z,6.57
2023-02-06T20:33:03.917Z,6.40
2023-02-06T20:35:39.562Z,7.45
2023-02-06T20:38:11.083Z,6.70
2023-02-06T20:40:49.801Z,6.57
2023-02-06T20:43:21.250Z,6.95
2023-02-06T20:45:52.680Z,6.45
2023-02-06T20:48:24.558Z,6.45
2023-02-06T20:50:57.646Z,7.15
2023-02-06T20:53:29.569Z,6.90
2023-02-06T20:56:00.966Z,6.15
2023-02-06T20:58:32.390Z,6.20
2023-02-06T21:01:15.180Z,6.32
2023-02-06T21:03:46.878Z,6.47
2023-02-06T21:06:18.492Z,6.18
2023-02-06T21:08:50.506Z,6.88
2023-02-06T21:11:22.295Z,6.13
2023-02-06T21:13:53.746Z,6.50
2023-02-06T21:16:26.604Z,8.07
2023-02-06T21:18:59.343Z,5.95
2023-02-06T21:21:30.863Z,6.22
2023-02-06T21:24:02.286Z,6.53
2023-02-06T21:26:33.816Z,6.15
2023-02-06T21:29:06.174Z,6.85
2023-02-06T21:31:38.832Z,5.93
2023-02-06T21:34:20.073Z,6.70
2023-02-06T21:36:51.548Z,6.13
2023-02-06T21:39:24.837Z,5.80
2023-02-06T21:41:56.327Z,6.22
2023-02-06T21:44:28.070Z,5.95
2023-02-06T21:46:59.890Z,7.43
2023-02-06T21:49:31.341Z,6.20
2023-02-06T21:52:02.825Z,6.45
2023-02-06T21:54:34.298Z,6.88
2023-02-06T21:57:05.736Z,7.00
2023-02-06T21:59:37.289Z,5.88
2023-02-06T22:02:10.369Z,6.18
2023-02-06T22:04:41.798Z,6.70
2023-02-06T22:07:13.227Z,5.78
2023-02-06T22:09:44.697Z,6.85
2023-02-06T22:12:16.195Z,7.07
2023-02-06T22:14:47.658Z,7.28
2023-02-06T22:17:19.138Z,7.90
2023-02-06T22:19:50.664Z,6.70
2023-02-06T22:22:22.190Z,7.85
2023-02-06T22:24:53.634Z,6.63
2023-02-06T22:27:25.094Z,6.85
2023-02-06T22:29:56.476Z,7.30
2023-02-06T22:32:27.935Z,6.45
2023-02-06T22:35:00.056Z,6.32
2023-02-06T22:37:32.620Z,6.85
2023-02-06T22:40:04.406Z,7.35
2023-02-06T22:42:35.865Z,6.97
2023-02-06T22:45:07.550Z,7.40
2023-02-06T22:47:38.961Z,7.80
2023-02-06T22:50:10.393Z,6.50
2023-02-06T22:52:41.771Z,6.95
2023-02-06T22:55:13.228Z,6.53
2023-02-06T22:57:44.644Z,6.10
2023-02-06T23:00:16.441Z,7.07
2023-02-06T23:02:47.896Z,6.72
2023-02-06T23:05:19.376Z,7.35
2023-02-06T23:07:50.839Z,6.22
2023-02-06T23:10:22.310Z,6.70
2023-02-06T23:12:53.746Z,6.93
2023-02-06T23:15:25.176Z,6.10
2023-02-06T23:17:56.580Z,6.45
2023-02-06T23:20:28.017Z,8.03
2023-02-06T23:22:59.409Z,6.72
2023-02-06T23:25:31.383Z,6.40
2023-02-06T23:28:02.894Z,6.15
2023-02-06T23:30:34.360Z,5.85
2023-02-06T23:33:06.073Z,6.03
2023-02-06T23:35:39.387Z,6.10
2023-02-06T23:38:11.452Z,5.72
2023-02-06T23:40:42.920Z,6.10
2023-02-06T23:43:14.347Z,5.93
2023-02-06T23:45:46.118Z,7.43
2023-02-06T23:48:17.611Z,6.15
2023-02-06T23:50:49.072Z,6.18
2023-02-06T23:53:20.520Z,7.03
2023-02-06T23:55:51.977Z,6.47
2023-02-06T23:58:23.507Z,5.88
